sensor_id;sensor_type;location;lat;lon;timestamp;temperature;humidity
19031;DHT22;9648;51.130;13.978;2023-07-20T00:00:16;15.70;99.90
19031;DHT22;9648;51.130;13.978;2023-07-20T00:02:43;15.70;99.90
19031;DHT22;9648;51.130;13.978;2023-07-20T00:05:09;15.70;99.90
19031;DHT22;9648;51.130;13.978;2023-07-20T00:07:36;15.70;99.90
19031;DHT22;9648;51.130;13.978;2023-07-20T00:10:03;15.70;99.90
19031;DHT22;9648;51.130;13.978;2023-07-20T00:12:30;15.80;99.90
19031;DHT22;9648;51.130;13.978;2023-07-20T00:14:57;15.80;99.90
19031;DHT22;9648;51.130;13.978;2023-07-20T00:17:25;15.80;99.90
19031;DHT22;9648;51.130;13.978;2023-07-20T00:19:52;15.80;99.90
19031;DHT22;9648;51.130;13.978;2023-07-20T00:22:18;15.70;99.90
19031;DHT22;9648;51.130;13.978;2023-07-20T00:24:45;15.70;99.90
19031;DHT22;9648;51.130;13.978;2023-07-20T00:27:12;15.70;99.90
19031;DHT22;9648;51.130;13.978;2023-07-20T00:29:39;15.70;99.90
19031;DHT22;9648;51.130;13.978;2023-07-20T00:32:06;15.70;99.90
19031;DHT22;9648;51.130;13.978;2023-07-20T00:34:35;15.70;99.90
19031;DHT22;9648;51.130;13.978;2023-07-20T00:37:01;15.60;99.90
19031;DHT22;9648;51.130;13.978;2023-07-20T00:39:28;15.60;99.90
19031;DHT22;9648;51.130;13.978;2023-07-20T00:41:55;15.60;99.90
19031;DHT22;9648;51.130;13.978;2023-07-20T00:44:22;15.60;99.90
19031;DHT22;9648;51.130;13.978;2023-07-20T00:46:49;15.60;99.90
19031;DHT22;9648;51.130;13.978;2023-07-20T00:49:16;15.50;99.90
19031;DHT22;9648;51.130;13.978;2023-07-20T00:51:48;15.50;99.90
19031;DHT22;9648;51.130;13.978;2023-07-20T00:54:15;15.50;99.90
19031;DHT22;9648;51.130;13.978;2023-07-20T00:56:43;15.50;99.90
19031;DHT22;9648;51.130;13.978;2023-07-20T00:59:13;15.50;99.90
19031;DHT22;9648;51.130;13.978;2023-07-20T01:01:40;15.50;99.90
19031;DHT22;9648;51.130;13.978;2023-07-20T01:04:07;15.50;99.90
19031;DHT22;9648;51.130;13.978;2023-07-20T01:06:41;15.50;99.90
19031;DHT22;9648;51.130;13.978;2023-07-20T01:09:16;15.50;99.90
19031;DHT22;9648;51.130;13.978;2023-07-20T01:11:49;15.50;99.90
19031;DHT22;9648;51.130;13.978;2023-07-20T01:14:20;15.50;99.90
19031;DHT22;9648;51.130;13.978;2023-07-20T01:16:48;15.50;99.90
19031;DHT22;9648;51.130;13.978;2023-07-20T01:19:17;15.50;99.90
19031;DHT22;9648;51.130;13.978;2023-07-20T01:21:50;15.50;99.90
19031;DHT22;9648;51.130;13.978;2023-07-20T01:24:56;15.50;99.90
19031;DHT22;9648;51.130;13.978;2023-07-20T01:27:43;15.50;99.90
19031;DHT22;9648;51.130;13.978;2023-07-20T01:30:28;15.50;99.90
19031;DHT22;9648;51.130;13.978;2023-07-20T01:33:03;15.40;99.90
19031;DHT22;9648;51.130;13.978;2023-07-20T01:35:32;15.40;99.90
19031;DHT22;9648;51.130;13.978;2023-07-20T01:37:59;15.40;99.90
19031;DHT22;9648;51.130;13.978;2023-07-20T01:40:27;15.40;99.90
19031;DHT22;9648;51.130;13.978;2023-07-20T01:42:54;15.30;99.90
19031;DHT22;9648;51.130;13.978;2023-07-20T01:45:20;15.30;99.90
19031;DHT22;9648;51.130;13.978;2023-07-20T01:47:47;15.30;99.90
19031;DHT22;9648;51.130;13.978;2023-07-20T01:50:15;15.30;99.90
19031;DHT22;9648;51.130;13.978;2023-07-20T01:52:42;15.30;99.90
19031;DHT22;9648;51.130;13.978;2023-07-20T01:55:09;15.40;99.90
19031;DHT22;9648;51.130;13.978;2023-07-20T01:57:36;15.40;99.90
19031;DHT22;9648;51.130;13.978;2023-07-20T02:00:04;15.50;99.90
19031;DHT22;9648;51.130;13.978;2023-07-20T02:02:31;15.50;99.90
19031;DHT22;9648;51.130;13.978;2023-07-20T02:04:58;15.50;99.90
19031;DHT22;9648;51.130;13.978;2023-07-20T02:07:26;15.50;99.90
19031;DHT22;9648;51.130;13.978;2023-07-20T02:09:53;15.50;99.90
19031;DHT22;9648;51.130;13.978;2023-07-20T02:12:19;15.50;99.90
19031;DHT22;9648;51.130;13.978;2023-07-20T02:14:46;15.40;99.90
19031;DHT22;9648;51.130;13.978;2023-07-20T02:17:13;15.40;99.90
19031;DHT22;9648;51.130;13.978;2023-07-20T02:19:40;15.40;99.90
19031;DHT22;9648;51.130;13.978;2023-07-20T02:22:07;15.40;99.90
19031;DHT22;9648;51.130;13.978;2023-07-20T02:24:36;15.30;99.90
19031;DHT22;9648;51.130;13.978;2023-07-20T02:27:03;15.30;99.90
19031;DHT22;9648;51.130;13.978;2023-07-20T02:29:29;15.20;99.90
19031;DHT22;9648;51.130;13.978;2023-07-20T02:31:56;15.20;99.90
19031;DHT22;9648;51.130;13.978;2023-07-20T02:34:23;15.20;99.90
19031;DHT22;9648;51.130;13.978;2023-07-20T02:36:50;15.10;99.90
19031;DHT22;9648;51.130;13.978;2023-07-20T02:39:17;15.10;99.90
19031;DHT22;9648;51.130;13.978;2023-07-20T02:41:45;15.10;99.90
19031;DHT22;9648;51.130;13.978;2023-07-20T02:44:12;15.10;99.90
19031;DHT22;9648;51.130;13.978;2023-07-20T02:46:40;15.10;99.90
19031;DHT22;9648;51.130;13.978;2023-07-20T02:49:07;15.10;99.90
19031;DHT22;9648;51.130;13.978;2023-07-20T02:51:34;15.00;99.90
19031;DHT22;9648;51.130;13.978;2023-07-20T02:54:01;15.00;99.90
19031;DHT22;9648;51.130;13.978;2023-07-20T02:56:28;15.00;99.90
19031;DHT22;9648;51.130;13.978;2023-07-20T02:58:56;14.90;99.90
19031;DHT22;9648;51.130;13.978;2023-07-20T03:01:23;14.90;99.90
19031;DHT22;9648;51.130;13.978;2023-07-20T03:03:52;14.80;99.90
19031;DHT22;9648;51.130;13.978;2023-07-20T03:06:19;14.80;99.90
19031;DHT22;9648;51.130;13.978;2023-07-20T03:08:46;14.80;99.90
19031;DHT22;9648;51.130;13.978;2023-07-20T03:11:14;14.80;99.90
19031;DHT22;9648;51.130;13.978;2023-07-20T03:13:41;14.70;99.90
19031;DHT22;9648;51.130;13.978;2023-07-20T03:16:10;14.70;99.90
19031;DHT22;9648;51.130;13.978;2023-07-20T03:18:38;14.70;99.90
19031;DHT22;9648;51.130;13.978;2023-07-20T03:21:05;14.70;99.90
19031;DHT22;9648;51.130;13.978;2023-07-20T03:23:32;14.70;99.90
19031;DHT22;9648;51.130;13.978;2023-07-20T03:25:59;14.70;99.90
19031;DHT22;9648;51.130;13.978;2023-07-20T03:28:25;14.70;99.90
19031;DHT22;9648;51.130;13.978;2023-07-20T03:30:56;14.70;99.90
19031;DHT22;9648;51.130;13.978;2023-07-20T03:33:25;14.70;99.90
19031;DHT22;9648;51.130;13.978;2023-07-20T03:35:53;14.70;99.90
19031;DHT22;9648;51.130;13.978;2023-07-20T03:38:20;14.70;99.90
19031;DHT22;9648;51.130;13.978;2023-07-20T03:40:50;14.70;99.90
19031;DHT22;9648;51.130;13.978;2023-07-20T03:43:17;14.70;99.90
19031;DHT22;9648;51.130;13.978;2023-07-20T03:45:44;14.70;99.90
19031;DHT22;9648;51.130;13.978;2023-07-20T03:48:13;14.70;99.90
19031;DHT22;9648;51.130;13.978;2023-07-20T03:50:41;14.70;99.90
19031;DHT22;9648;51.130;13.978;2023-07-20T03:53:08;14.70;99.90
19031;DHT22;9648;51.130;13.978;2023-07-20T03:55:35;14.80;99.90
19031;DHT22;9648;51.130;13.978;2023-07-20T03:58:02;14.80;99.90
19031;DHT22;9648;51.130;13.978;2023-07-20T04:00:29;14.80;99.90
19031;DHT22;9648;51.130;13.978;2023-07-20T04:02:56;14.80;99.90
19031;DHT22;9648;51.130;13.978;2023-07-20T04:05:23;14.80;99.90
19031;DHT22;9648;51.130;13.978;2023-07-20T04:07:51;14.80;99.90
19031;DHT22;9648;51.130;13.978;2023-07-20T04:10:18;14.80;99.90
19031;DHT22;9648;51.130;13.978;2023-07-20T04:12:45;14.80;99.90
19031;DHT22;9648;51.130;13.978;2023-07-20T04:15:12;14.70;99.90
19031;DHT22;9648;51.130;13.978;2023-07-20T04:17:39;14.80;99.90
19031;DHT22;9648;51.130;13.978;2023-07-20T04:20:08;14.70;99.90
19031;DHT22;9648;51.130;13.978;2023-07-20T04:22:35;14.80;99.90
19031;DHT22;9648;51.130;13.978;2023-07-20T04:25:04;14.80;99.90
19031;DHT22;9648;51.130;13.978;2023-07-20T04:27:31;14.90;99.90
19031;DHT22;9648;51.130;13.978;2023-07-20T04:29:58;14.90;99.90
19031;DHT22;9648;51.130;13.978;2023-07-20T04:32:26;14.90;99.90
19031;DHT22;9648;51.130;13.978;2023-07-20T04:34:53;15.00;99.90
19031;DHT22;9648;51.130;13.978;2023-07-20T04:37:19;15.00;99.90
19031;DHT22;9648;51.130;13.978;2023-07-20T04:39:46;15.10;99.90
19031;DHT22;9648;51.130;13.978;2023-07-20T04:42:15;15.20;99.90
19031;DHT22;9648;51.130;13.978;2023-07-20T04:44:41;15.30;99.90
19031;DHT22;9648;51.130;13.978;2023-07-20T04:47:08;15.50;99.90
19031;DHT22;9648;51.130;13.978;2023-07-20T04:49:35;15.50;99.90
19031;DHT22;9648;51.130;13.978;2023-07-20T04:52:02;15.60;99.90
19031;DHT22;9648;51.130;13.978;2023-07-20T04:54:29;15.60;99.90
19031;DHT22;9648;51.130;13.978;2023-07-20T04:56:56;15.70;99.90
19031;DHT22;9648;51.130;13.978;2023-07-20T04:59:24;15.70;99.90
19031;DHT22;9648;51.130;13.978;2023-07-20T05:01:50;15.80;99.90
19031;DHT22;9648;51.130;13.978;2023-07-20T05:04:18;15.90;99.90
19031;DHT22;9648;51.130;13.978;2023-07-20T05:06:45;15.90;99.90
19031;DHT22;9648;51.130;13.978;2023-07-20T05:09:12;16.00;99.90
19031;DHT22;9648;51.130;13.978;2023-07-20T05:11:39;16.00;99.90
19031;DHT22;9648;51.130;13.978;2023-07-20T05:14:05;16.00;99.90
19031;DHT22;9648;51.130;13.978;2023-07-20T05:16:34;16.00;99.90
19031;DHT22;9648;51.130;13.978;2023-07-20T05:19:00;16.00;99.90
19031;DHT22;9648;51.130;13.978;2023-07-20T05:21:27;16.00;99.90
19031;DHT22;9648;51.130;13.978;2023-07-20T05:23:54;16.10;99.90
19031;DHT22;9648;51.130;13.978;2023-07-20T05:26:21;16.10;99.90
19031;DHT22;9648;51.130;13.978;2023-07-20T05:28:47;16.10;99.90
19031;DHT22;9648;51.130;13.978;2023-07-20T05:31:14;16.10;99.90
19031;DHT22;9648;51.130;13.978;2023-07-20T05:33:42;16.00;99.90
19031;DHT22;9648;51.130;13.978;2023-07-20T05:36:09;16.00;99.90
19031;DHT22;9648;51.130;13.978;2023-07-20T05:38:36;16.00;99.90
19031;DHT22;9648;51.130;13.978;2023-07-20T05:41:03;16.00;99.90
19031;DHT22;9648;51.130;13.978;2023-07-20T05:43:30;16.10;99.90
19031;DHT22;9648;51.130;13.978;2023-07-20T05:45:57;16.20;99.90
19031;DHT22;9648;51.130;13.978;2023-07-20T05:48:24;16.30;99.90
19031;DHT22;9648;51.130;13.978;2023-07-20T05:50:52;16.40;99.90
19031;DHT22;9648;51.130;13.978;2023-07-20T05:53:19;16.40;99.90
19031;DHT22;9648;51.130;13.978;2023-07-20T05:55:52;16.50;99.90
19031;DHT22;9648;51.130;13.978;2023-07-20T05:58:19;16.60;99.90
19031;DHT22;9648;51.130;13.978;2023-07-20T06:00:47;16.60;99.90
19031;DHT22;9648;51.130;13.978;2023-07-20T06:03:14;16.80;99.90
19031;DHT22;9648;51.130;13.978;2023-07-20T06:05:42;16.90;99.90
19031;DHT22;9648;51.130;13.978;2023-07-20T06:08:10;16.90;99.90
19031;DHT22;9648;51.130;13.978;2023-07-20T06:10:36;16.90;99.90
19031;DHT22;9648;51.130;13.978;2023-07-20T06:13:03;16.90;99.90
19031;DHT22;9648;51.130;13.978;2023-07-20T06:15:32;17.00;99.90
19031;DHT22;9648;51.130;13.978;2023-07-20T06:18:01;17.00;99.90
19031;DHT22;9648;51.130;13.978;2023-07-20T06:20:29;17.00;99.90
19031;DHT22;9648;51.130;13.978;2023-07-20T06:22:56;17.00;99.90
19031;DHT22;9648;51.130;13.978;2023-07-20T06:25:24;16.90;99.90
19031;DHT22;9648;51.130;13.978;2023-07-20T06:27:51;16.90;99.90
19031;DHT22;9648;51.130;13.978;2023-07-20T06:30:18;16.90;99.90
19031;DHT22;9648;51.130;13.978;2023-07-20T06:32:45;17.00;99.90
19031;DHT22;9648;51.130;13.978;2023-07-20T06:35:12;17.10;99.90
19031;DHT22;9648;51.130;13.978;2023-07-20T06:37:39;17.20;99.90
19031;DHT22;9648;51.130;13.978;2023-07-20T06:40:07;17.10;99.90
19031;DHT22;9648;51.130;13.978;2023-07-20T06:42:39;17.00;99.90
19031;DHT22;9648;51.130;13.978;2023-07-20T06:45:06;17.00;99.90
19031;DHT22;9648;51.130;13.978;2023-07-20T06:47:34;16.90;99.90
19031;DHT22;9648;51.130;13.978;2023-07-20T06:50:01;16.90;99.90
19031;DHT22;9648;51.130;13.978;2023-07-20T06:52:27;16.90;99.90
19031;DHT22;9648;51.130;13.978;2023-07-20T06:54:54;16.90;99.90
19031;DHT22;9648;51.130;13.978;2023-07-20T06:57:21;16.90;99.90
19031;DHT22;9648;51.130;13.978;2023-07-20T06:59:49;16.90;99.90
19031;DHT22;9648;51.130;13.978;2023-07-20T07:02:16;16.90;99.90
19031;DHT22;9648;51.130;13.978;2023-07-20T07:04:43;17.00;99.90
19031;DHT22;9648;51.130;13.978;2023-07-20T07:07:11;17.00;99.90
19031;DHT22;9648;51.130;13.978;2023-07-20T07:09:37;17.00;99.90
19031;DHT22;9648;51.130;13.978;2023-07-20T07:12:05;16.90;99.90
19031;DHT22;9648;51.130;13.978;2023-07-20T07:14:32;16.90;99.90
19031;DHT22;9648;51.130;13.978;2023-07-20T07:17:00;16.90;99.90
19031;DHT22;9648;51.130;13.978;2023-07-20T07:19:27;17.10;99.90
19031;DHT22;9648;51.130;13.978;2023-07-20T07:21:54;17.10;99.90
19031;DHT22;9648;51.130;13.978;2023-07-20T07:24:20;17.10;99.90
19031;DHT22;9648;51.130;13.978;2023-07-20T07:26:47;17.20;99.90
19031;DHT22;9648;51.130;13.978;2023-07-20T07:29:14;17.40;99.90
19031;DHT22;9648;51.130;13.978;2023-07-20T07:31:41;17.50;99.90
19031;DHT22;9648;51.130;13.978;2023-07-20T07:34:09;17.50;99.90
19031;DHT22;9648;51.130;13.978;2023-07-20T07:36:35;17.50;99.90
19031;DHT22;9648;51.130;13.978;2023-07-20T07:39:02;17.50;99.90
19031;DHT22;9648;51.130;13.978;2023-07-20T07:41:29;17.60;99.90
19031;DHT22;9648;51.130;13.978;2023-07-20T07:43:56;17.70;99.90
19031;DHT22;9648;51.130;13.978;2023-07-20T07:46:23;17.80;99.90
19031;DHT22;9648;51.130;13.978;2023-07-20T07:48:49;18.00;99.90
19031;DHT22;9648;51.130;13.978;2023-07-20T07:51:17;18.10;99.90
19031;DHT22;9648;51.130;13.978;2023-07-20T07:53:46;18.10;99.90
19031;DHT22;9648;51.130;13.978;2023-07-20T07:56:14;18.10;99.90
19031;DHT22;9648;51.130;13.978;2023-07-20T07:58:42;18.10;99.90
19031;DHT22;9648;51.130;13.978;2023-07-20T08:01:09;18.00;99.90
19031;DHT22;9648;51.130;13.978;2023-07-20T08:03:35;17.80;99.90
19031;DHT22;9648;51.130;13.978;2023-07-20T08:06:02;17.80;99.90
19031;DHT22;9648;51.130;13.978;2023-07-20T08:08:31;17.90;99.90
19031;DHT22;9648;51.130;13.978;2023-07-20T08:10:58;18.10;99.90
19031;DHT22;9648;51.130;13.978;2023-07-20T08:13:25;18.10;99.90
19031;DHT22;9648;51.130;13.978;2023-07-20T08:15:53;18.10;99.90
19031;DHT22;9648;51.130;13.978;2023-07-20T08:18:19;18.20;99.90
19031;DHT22;9648;51.130;13.978;2023-07-20T08:20:47;18.30;99.90
19031;DHT22;9648;51.130;13.978;2023-07-20T08:23:14;18.50;99.90
19031;DHT22;9648;51.130;13.978;2023-07-20T08:25:43;18.60;99.90
19031;DHT22;9648;51.130;13.978;2023-07-20T08:28:10;18.80;99.90
19031;DHT22;9648;51.130;13.978;2023-07-20T08:30:41;18.90;99.90
19031;DHT22;9648;51.130;13.978;2023-07-20T08:33:09;19.10;99.90
19031;DHT22;9648;51.130;13.978;2023-07-20T08:35:36;19.20;99.90
19031;DHT22;9648;51.130;13.978;2023-07-20T08:38:03;19.20;99.90
19031;DHT22;9648;51.130;13.978;2023-07-20T08:40:31;19.30;99.90
19031;DHT22;9648;51.130;13.978;2023-07-20T08:42:59;19.20;99.90
19031;DHT22;9648;51.130;13.978;2023-07-20T08:45:27;19.10;99.90
19031;DHT22;9648;51.130;13.978;2023-07-20T08:47:56;19.00;99.90
19031;DHT22;9648;51.130;13.978;2023-07-20T08:50:27;19.00;99.90
19031;DHT22;9648;51.130;13.978;2023-07-20T08:52:57;19.10;99.90
19031;DHT22;9648;51.130;13.978;2023-07-20T08:55:25;19.10;99.90
19031;DHT22;9648;51.130;13.978;2023-07-20T08:57:54;19.10;99.90
19031;DHT22;9648;51.130;13.978;2023-07-20T09:00:23;19.00;99.90
19031;DHT22;9648;51.130;13.978;2023-07-20T09:02:52;19.00;99.90
19031;DHT22;9648;51.130;13.978;2023-07-20T09:05:19;19.00;99.90
19031;DHT22;9648;51.130;13.978;2023-07-20T09:07:46;19.20;99.90
19031;DHT22;9648;51.130;13.978;2023-07-20T09:10:13;19.40;99.90
19031;DHT22;9648;51.130;13.978;2023-07-20T09:12:42;19.60;99.90
19031;DHT22;9648;51.130;13.978;2023-07-20T09:15:11;19.70;99.90
19031;DHT22;9648;51.130;13.978;2023-07-20T09:17:45;19.70;99.90
19031;DHT22;9648;51.130;13.978;2023-07-20T09:20:12;19.70;99.90
19031;DHT22;9648;51.130;13.978;2023-07-20T09:22:42;19.60;99.90
19031;DHT22;9648;51.130;13.978;2023-07-20T09:25:12;19.70;99.90
19031;DHT22;9648;51.130;13.978;2023-07-20T09:27:41;19.60;99.90
19031;DHT22;9648;51.130;13.978;2023-07-20T09:30:09;19.40;99.90
19031;DHT22;9648;51.130;13.978;2023-07-20T09:32:40;19.20;99.90
19031;DHT22;9648;51.130;13.978;2023-07-20T09:35:13;19.20;99.90
19031;DHT22;9648;51.130;13.978;2023-07-20T09:37:46;19.30;99.90
19031;DHT22;9648;51.130;13.978;2023-07-20T09:40:15;19.40;99.90
19031;DHT22;9648;51.130;13.978;2023-07-20T09:42:43;19.50;99.90
19031;DHT22;9648;51.130;13.978;2023-07-20T09:45:10;19.70;99.90
19031;DHT22;9648;51.130;13.978;2023-07-20T09:47:37;19.90;99.90
19031;DHT22;9648;51.130;13.978;2023-07-20T09:50:09;20.10;99.90
19031;DHT22;9648;51.130;13.978;2023-07-20T09:52:41;20.20;99.90
19031;DHT22;9648;51.130;13.978;2023-07-20T09:55:10;20.30;99.90
19031;DHT22;9648;51.130;13.978;2023-07-20T09:57:38;20.40;99.90
19031;DHT22;9648;51.130;13.978;2023-07-20T10:00:06;20.70;99.90
19031;DHT22;9648;51.130;13.978;2023-07-20T10:02:42;20.90;99.90
19031;DHT22;9648;51.130;13.978;2023-07-20T10:05:13;20.80;99.90
19031;DHT22;9648;51.130;13.978;2023-07-20T10:07:44;20.70;99.90
19031;DHT22;9648;51.130;13.978;2023-07-20T10:10:14;20.60;99.90
19031;DHT22;9648;51.130;13.978;2023-07-20T10:12:44;20.40;99.90
19031;DHT22;9648;51.130;13.978;2023-07-20T10:15:17;20.10;99.90
19031;DHT22;9648;51.130;13.978;2023-07-20T10:17:53;19.30;99.90
19031;DHT22;9648;51.130;13.978;2023-07-20T10:20:25;18.50;99.90
19031;DHT22;9648;51.130;13.978;2023-07-20T10:22:54;17.80;99.90
19031;DHT22;9648;51.130;13.978;2023-07-20T10:25:23;17.40;99.90
19031;DHT22;9648;51.130;13.978;2023-07-20T10:27:50;16.90;99.90
19031;DHT22;9648;51.130;13.978;2023-07-20T10:30:18;16.60;99.90
19031;DHT22;9648;51.130;13.978;2023-07-20T10:32:45;16.40;99.90
19031;DHT22;9648;51.130;13.978;2023-07-20T10:35:14;16.30;99.90
19031;DHT22;9648;51.130;13.978;2023-07-20T10:37:53;16.20;99.90
19031;DHT22;9648;51.130;13.978;2023-07-20T10:40:31;16.10;99.90
19031;DHT22;9648;51.130;13.978;2023-07-20T10:43:03;16.10;99.90
19031;DHT22;9648;51.130;13.978;2023-07-20T10:45:39;16.10;99.90
19031;DHT22;9648;51.130;13.978;2023-07-20T10:48:14;16.30;99.90
19031;DHT22;9648;51.130;13.978;2023-07-20T10:50:42;16.50;99.90
19031;DHT22;9648;51.130;13.978;2023-07-20T10:53:15;16.60;99.90
19031;DHT22;9648;51.130;13.978;2023-07-20T10:55:43;16.80;99.90
19031;DHT22;9648;51.130;13.978;2023-07-20T10:58:12;17.00;99.90
19031;DHT22;9648;51.130;13.978;2023-07-20T11:01:01;17.10;99.90
19031;DHT22;9648;51.130;13.978;2023-07-20T11:03:32;17.30;99.90
19031;DHT22;9648;51.130;13.978;2023-07-20T11:06:00;17.40;99.90
19031;DHT22;9648;51.130;13.978;2023-07-20T11:08:48;17.40;99.90
19031;DHT22;9648;51.130;13.978;2023-07-20T11:11:22;17.30;99.90
19031;DHT22;9648;51.130;13.978;2023-07-20T11:13:54;17.30;99.90
19031;DHT22;9648;51.130;13.978;2023-07-20T11:16:35;17.40;99.90
19031;DHT22;9648;51.130;13.978;2023-07-20T11:19:03;17.60;99.90
19031;DHT22;9648;51.130;13.978;2023-07-20T11:21:36;17.70;99.90
19031;DHT22;9648;51.130;13.978;2023-07-20T11:24:05;17.90;99.90
19031;DHT22;9648;51.130;13.978;2023-07-20T11:26:43;18.10;99.90
19031;DHT22;9648;51.130;13.978;2023-07-20T11:29:15;18.30;99.90
19031;DHT22;9648;51.130;13.978;2023-07-20T11:31:43;18.50;99.90
19031;DHT22;9648;51.130;13.978;2023-07-20T11:34:11;18.50;99.90
19031;DHT22;9648;51.130;13.978;2023-07-20T11:36:40;18.50;99.90
19031;DHT22;9648;51.130;13.978;2023-07-20T11:39:10;18.40;99.90
19031;DHT22;9648;51.130;13.978;2023-07-20T11:41:36;18.30;99.90
19031;DHT22;9648;51.130;13.978;2023-07-20T11:44:04;18.50;99.90
19031;DHT22;9648;51.130;13.978;2023-07-20T11:46:32;18.70;99.90
19031;DHT22;9648;51.130;13.978;2023-07-20T11:48:59;18.90;99.90
19031;DHT22;9648;51.130;13.978;2023-07-20T11:51:28;19.10;99.90
19031;DHT22;9648;51.130;13.978;2023-07-20T11:53:55;19.20;99.90
19031;DHT22;9648;51.130;13.978;2023-07-20T11:56:24;19.30;99.90
19031;DHT22;9648;51.130;13.978;2023-07-20T11:58:55;19.40;99.90
19031;DHT22;9648;51.130;13.978;2023-07-20T12:01:25;19.50;99.90
19031;DHT22;9648;51.130;13.978;2023-07-20T12:03:55;19.50;99.90
19031;DHT22;9648;51.130;13.978;2023-07-20T12:06:23;19.50;99.90
19031;DHT22;9648;51.130;13.978;2023-07-20T12:08:53;19.40;99.90
19031;DHT22;9648;51.130;13.978;2023-07-20T12:11:32;19.50;99.90
19031;DHT22;9648;51.130;13.978;2023-07-20T12:14:00;19.70;99.90
19031;DHT22;9648;51.130;13.978;2023-07-20T12:16:28;19.70;99.90
19031;DHT22;9648;51.130;13.978;2023-07-20T12:19:00;19.90;99.90
19031;DHT22;9648;51.130;13.978;2023-07-20T12:21:27;20.00;99.90
19031;DHT22;9648;51.130;13.978;2023-07-20T12:23:56;20.10;99.90
19031;DHT22;9648;51.130;13.978;2023-07-20T12:26:24;20.10;99.90
19031;DHT22;9648;51.130;13.978;2023-07-20T12:28:53;20.00;99.90
19031;DHT22;9648;51.130;13.978;2023-07-20T12:31:19;19.70;99.90
19031;DHT22;9648;51.130;13.978;2023-07-20T12:33:48;19.60;99.90
19031;DHT22;9648;51.130;13.978;2023-07-20T12:36:14;19.60;99.90
19031;DHT22;9648;51.130;13.978;2023-07-20T12:38:41;19.50;99.90
19031;DHT22;9648;51.130;13.978;2023-07-20T12:41:10;19.40;99.90
19031;DHT22;9648;51.130;13.978;2023-07-20T12:43:39;19.40;99.90
19031;DHT22;9648;51.130;13.978;2023-07-20T12:46:07;19.40;99.90
19031;DHT22;9648;51.130;13.978;2023-07-20T12:48:36;19.50;99.90
19031;DHT22;9648;51.130;13.978;2023-07-20T12:51:05;19.60;99.90
19031;DHT22;9648;51.130;13.978;2023-07-20T12:53:33;19.60;99.90
19031;DHT22;9648;51.130;13.978;2023-07-20T12:56:02;19.60;99.90
19031;DHT22;9648;51.130;13.978;2023-07-20T12:58:29;19.70;99.90
19031;DHT22;9648;51.130;13.978;2023-07-20T13:00:56;19.90;99.90
19031;DHT22;9648;51.130;13.978;2023-07-20T13:03:24;20.10;99.90
19031;DHT22;9648;51.130;13.978;2023-07-20T13:05:51;20.20;99.90
19031;DHT22;9648;51.130;13.978;2023-07-20T13:08:17;20.40;99.90
19031;DHT22;9648;51.130;13.978;2023-07-20T13:10:45;20.50;99.90
19031;DHT22;9648;51.130;13.978;2023-07-20T13:13:12;20.40;99.90
19031;DHT22;9648;51.130;13.978;2023-07-20T13:15:43;20.40;99.90
19031;DHT22;9648;51.130;13.978;2023-07-20T13:18:14;20.40;99.90
19031;DHT22;9648;51.130;13.978;2023-07-20T13:20:42;20.30;99.90
19031;DHT22;9648;51.130;13.978;2023-07-20T13:23:09;20.20;99.90
19031;DHT22;9648;51.130;13.978;2023-07-20T13:25:36;20.20;99.90
19031;DHT22;9648;51.130;13.978;2023-07-20T13:28:04;20.00;99.90
19031;DHT22;9648;51.130;13.978;2023-07-20T13:30:31;19.90;99.90
19031;DHT22;9648;51.130;13.978;2023-07-20T13:32:58;19.90;99.90
19031;DHT22;9648;51.130;13.978;2023-07-20T13:35:25;20.00;99.90
19031;DHT22;9648;51.130;13.978;2023-07-20T13:37:54;20.10;99.90
19031;DHT22;9648;51.130;13.978;2023-07-20T13:40:20;20.10;99.90
19031;DHT22;9648;51.130;13.978;2023-07-20T13:42:48;20.10;99.90
19031;DHT22;9648;51.130;13.978;2023-07-20T13:45:15;20.00;99.90
19031;DHT22;9648;51.130;13.978;2023-07-20T13:47:43;20.00;99.90
19031;DHT22;9648;51.130;13.978;2023-07-20T13:50:10;19.90;99.90
19031;DHT22;9648;51.130;13.978;2023-07-20T13:52:37;19.90;99.90
19031;DHT22;9648;51.130;13.978;2023-07-20T13:55:05;19.90;99.90
19031;DHT22;9648;51.130;13.978;2023-07-20T13:57:32;19.90;99.90
19031;DHT22;9648;51.130;13.978;2023-07-20T13:59:59;19.90;99.90
19031;DHT22;9648;51.130;13.978;2023-07-20T14:02:27;20.00;99.90
19031;DHT22;9648;51.130;13.978;2023-07-20T14:04:54;20.20;99.90
19031;DHT22;9648;51.130;13.978;2023-07-20T14:07:21;20.40;99.90
19031;DHT22;9648;51.130;13.978;2023-07-20T14:09:48;20.50;99.90
19031;DHT22;9648;51.130;13.978;2023-07-20T14:12:16;20.60;99.90
19031;DHT22;9648;51.130;13.978;2023-07-20T14:14:43;20.70;99.90
19031;DHT22;9648;51.130;13.978;2023-07-20T14:17:10;20.70;99.90
19031;DHT22;9648;51.130;13.978;2023-07-20T14:19:38;20.70;99.90
19031;DHT22;9648;51.130;13.978;2023-07-20T14:22:05;20.80;99.90
19031;DHT22;9648;51.130;13.978;2023-07-20T14:24:32;20.80;99.90
19031;DHT22;9648;51.130;13.978;2023-07-20T14:26:59;20.90;99.90
19031;DHT22;9648;51.130;13.978;2023-07-20T14:29:27;20.80;99.90
19031;DHT22;9648;51.130;13.978;2023-07-20T14:31:57;20.50;99.90
19031;DHT22;9648;51.130;13.978;2023-07-20T14:34:24;20.30;99.90
19031;DHT22;9648;51.130;13.978;2023-07-20T14:36:50;20.20;99.90
19031;DHT22;9648;51.130;13.978;2023-07-20T14:39:17;20.10;99.90
19031;DHT22;9648;51.130;13.978;2023-07-20T14:41:45;20.10;99.90
19031;DHT22;9648;51.130;13.978;2023-07-20T14:44:11;20.20;99.90
19031;DHT22;9648;51.130;13.978;2023-07-20T14:46:40;20.20;99.90
19031;DHT22;9648;51.130;13.978;2023-07-20T14:49:06;20.30;99.90
19031;DHT22;9648;51.130;13.978;2023-07-20T14:51:33;20.40;99.90
19031;DHT22;9648;51.130;13.978;2023-07-20T14:54:01;20.30;99.90
19031;DHT22;9648;51.130;13.978;2023-07-20T14:56:28;20.40;99.90
19031;DHT22;9648;51.130;13.978;2023-07-20T14:58:55;20.40;99.90
19031;DHT22;9648;51.130;13.978;2023-07-20T15:01:23;20.70;99.90
19031;DHT22;9648;51.130;13.978;2023-07-20T15:03:54;21.00;99.90
19031;DHT22;9648;51.130;13.978;2023-07-20T15:06:22;21.00;99.90
19031;DHT22;9648;51.130;13.978;2023-07-20T15:08:48;21.10;99.90
19031;DHT22;9648;51.130;13.978;2023-07-20T15:11:15;21.30;99.90
19031;DHT22;9648;51.130;13.978;2023-07-20T15:13:42;21.60;99.90
19031;DHT22;9648;51.130;13.978;2023-07-20T15:16:09;21.70;99.90
19031;DHT22;9648;51.130;13.978;2023-07-20T15:18:36;21.90;99.90
19031;DHT22;9648;51.130;13.978;2023-07-20T15:21:04;22.10;99.90
19031;DHT22;9648;51.130;13.978;2023-07-20T15:23:31;22.10;99.90
19031;DHT22;9648;51.130;13.978;2023-07-20T15:25:58;22.00;99.90
19031;DHT22;9648;51.130;13.978;2023-07-20T15:28:25;21.90;99.90
19031;DHT22;9648;51.130;13.978;2023-07-20T15:30:59;21.90;99.90
19031;DHT22;9648;51.130;13.978;2023-07-20T15:33:26;21.70;99.90
19031;DHT22;9648;51.130;13.978;2023-07-20T15:35:52;21.60;99.90